createdAt,value
2023-02-24T00:02:05.728Z,92.82
2023-02-24T00:04:39.980Z,93.56
2023-02-24T00:07:11.415Z,92.61
2023-02-24T00:09:41.116Z,92.45
2023-02-24T00:12:13.575Z,93.32
2023-02-24T00:14:43.360Z,92.58
2023-02-24T00:17:16.135Z,92.92
2023-02-24T00:19:46.666Z,92.57
2023-02-24T00:22:16.472Z,92.30
2023-02-24T00:24:46.307Z,92.32
2023-02-24T00:27:15.525Z,91.72
2023-02-24T00:29:47.427Z,91.91
2023-02-24T00:32:17.292Z,92.12
2023-02-24T00:34:48.574Z,92.26
2023-02-24T00:37:19.825Z,92.20
2023-02-24T00:39:49.115Z,93.09
2023-02-24T00:42:18.705Z,92.04
2023-02-24T00:44:48.855Z,92.36
2023-02-24T00:47:18.874Z,92.96
2023-02-24T00:49:49.967Z,92.79
2023-02-24T00:52:21.520Z,93.97
2023-02-24T00:54:51.099Z,94.02
2023-02-24T00:57:21.630Z,94.20
2023-02-24T00:59:52.246Z,94.41
2023-02-24T01:02:21.738Z,94.88
2023-02-24T01:04:51.508Z,95.97
2023-02-24T01:07:20.822Z,95.32
2023-02-24T01:09:51.685Z,95.67
2023-02-24T01:12:39.198Z,96.15
2023-02-24T01:15:11.124Z,96.15
2023-02-24T01:17:41.148Z,96.79
2023-02-24T01:20:17.049Z,96.74
2023-02-24T01:22:48.794Z,96.12
2023-02-24T01:25:20.642Z,96.07
2023-02-24T01:27:50.706Z,96.20
2023-02-24T01:30:20.893Z,96.76
2023-02-24T01:32:51.647Z,96.79
2023-02-24T01:35:21.478Z,97.00
2023-02-24T01:37:50.927Z,96.58
2023-02-24T01:40:21.901Z,96.12
2023-02-24T01:42:51.813Z,96.40
2023-02-24T01:45:25.250Z,96.92
2023-02-24T01:48:00.463Z,97.35
2023-02-24T01:50:30.893Z,97.51
2023-02-24T01:53:04.449Z,97.86
2023-02-24T01:55:37.403Z,98.08
2023-02-24T01:58:09.814Z,98.30
2023-02-24T02:00:41.422Z,98.82
2023-02-24T02:03:24.285Z,98.77
2023-02-24T02:05:56.037Z,98.94
2023-02-24T02:08:26.055Z,99.38
2023-02-24T02:10:57.552Z,99.50
2023-02-24T02:13:28.440Z,99.55
2023-02-24T02:16:13.967Z,99.87
2023-02-24T02:19:11.141Z,99.67
2023-02-24T02:21:52.519Z,100.00
2023-02-24T02:24:30.890Z,100.00
2023-02-24T02:27:21.874Z,100.00
2023-02-24T02:30:19.798Z,100.00
2023-02-24T02:33:24.737Z,100.00
2023-02-24T02:36:03.154Z,100.00
2023-02-24T02:38:38.580Z,99.96
2023-02-24T02:41:11.309Z,99.82
2023-02-24T02:43:43.955Z,99.23
2023-02-24T02:46:17.694Z,98.26
2023-02-24T02:48:52.926Z,97.54
2023-02-24T02:51:28.115Z,96.95
2023-02-24T02:54:03.442Z,96.33
2023-02-24T02:56:36.150Z,95.78
2023-02-24T02:59:06.442Z,95.50
2023-02-24T03:01:39.001Z,95.79
2023-02-24T03:04:10.553Z,96.06
2023-02-24T03:06:48.936Z,95.46
2023-02-24T03:09:21.403Z,95.93
2023-02-24T03:11:54.499Z,96.00
2023-02-24T03:14:24.636Z,96.13
2023-02-24T03:16:56.053Z,96.26
2023-02-24T03:19:28.425Z,96.57
2023-02-24T03:22:00.949Z,96.52
2023-02-24T03:24:31.151Z,96.57
2023-02-24T03:27:07.249Z,96.79
2023-02-24T03:29:41.500Z,96.72
2023-02-24T03:32:23.160Z,96.82
2023-02-24T03:35:08.584Z,97.10
2023-02-24T03:37:39.648Z,97.12
2023-02-24T03:40:12.090Z,96.81
2023-02-24T03:42:48.321Z,96.41
2023-02-24T03:45:18.293Z,96.04
2023-02-24T03:47:47.944Z,95.85
2023-02-24T03:50:19.330Z,95.65
2023-02-24T03:52:56.211Z,95.89
2023-02-24T03:55:41.221Z,96.24
2023-02-24T03:58:24.130Z,96.25
2023-02-24T04:01:16.159Z,96.52
2023-02-24T04:03:51.534Z,96.50
2023-02-24T04:06:56.139Z,96.58
2023-02-24T04:09:32.644Z,96.38
2023-02-24T04:12:27.975Z,96.18
2023-02-24T04:15:03.809Z,96.19
2023-02-24T04:17:42.656Z,95.82
2023-02-24T04:20:15.697Z,95.95
2023-02-24T04:22:52.108Z,95.50
2023-02-24T04:25:27.407Z,95.01
2023-02-24T04:28:00.170Z,94.09
2023-02-24T04:30:32.609Z,93.24
2023-02-24T04:33:02.150Z,93.50
2023-02-24T04:35:33.175Z,93.52
2023-02-24T04:38:02.548Z,92.99
2023-02-24T04:40:32.742Z,92.81
2023-02-24T04:43:03.184Z,93.07
2023-02-24T04:45:33.503Z,93.07
2023-02-24T04:48:03.723Z,92.89
2023-02-24T04:50:35.900Z,92.54
2023-02-24T04:53:09.427Z,92.34
2023-02-24T04:55:41.501Z,92.00
2023-02-24T04:58:12.826Z,91.68
2023-02-24T05:00:42.584Z,91.89
2023-02-24T05:03:13.626Z,92.19
2023-02-24T05:05:52.223Z,91.93
2023-02-24T05:08:21.688Z,92.53
2023-02-24T05:10:51.919Z,92.97
2023-02-24T05:13:25.268Z,93.86
2023-02-24T05:15:57.023Z,94.22
2023-02-24T05:18:28.943Z,93.68
2023-02-24T05:21:16.450Z,93.62
2023-02-24T05:23:47.540Z,94.18
2023-02-24T05:26:18.814Z,93.91
2023-02-24T05:28:53.151Z,93.78
2023-02-24T05:31:28.321Z,94.15
2023-02-24T05:34:03.400Z,94.15
2023-02-24T05:36:36.349Z,93.33
2023-02-24T05:39:09.929Z,93.20
2023-02-24T05:41:42.479Z,93.11
2023-02-24T05:44:16.772Z,93.34
2023-02-24T05:46:47.406Z,93.12
2023-02-24T05:49:21.902Z,92.60
2023-02-24T05:51:55.635Z,92.47
2023-02-24T05:54:29.133Z,92.28
2023-02-24T05:57:05.048Z,92.25
2023-02-24T05:59:34.863Z,91.76
2023-02-24T06:02:09.349Z,91.62
2023-02-24T06:04:42.993Z,90.80
2023-02-24T06:07:16.671Z,91.06
2023-02-24T06:09:49.162Z,91.61
2023-02-24T06:12:18.428Z,91.66
2023-02-24T06:14:48.224Z,91.35
2023-02-24T06:17:18.812Z,91.48
2023-02-24T06:19:50.577Z,91.52
2023-02-24T06:22:22.533Z,91.34
2023-02-24T06:24:54.358Z,90.54
2023-02-24T06:27:25.049Z,90.48
2023-02-24T06:29:57.495Z,90.50
2023-02-24T06:32:28.247Z,90.54
2023-02-24T06:34:59.403Z,90.11
2023-02-24T06:37:30.040Z,89.73
2023-02-24T06:39:59.705Z,89.66
2023-02-24T06:42:28.925Z,88.62
2023-02-24T06:44:58.511Z,88.62
2023-02-24T06:47:27.811Z,88.61
2023-02-24T06:49:57.926Z,88.70
2023-02-24T06:52:27.228Z,87.80
2023-02-24T06:54:56.465Z,87.56
2023-02-24T06:57:25.689Z,87.14
2023-02-24T06:59:56.576Z,87.14
2023-02-24T07:02:27.584Z,87.55
2023-02-24T07:04:58.849Z,86.87
2023-02-24T07:07:29.148Z,86.79
2023-02-24T07:09:58.389Z,86.27
2023-02-24T07:12:27.621Z,86.46
2023-02-24T07:14:56.838Z,85.93
2023-02-24T07:17:26.550Z,86.06
2023-02-24T07:19:57.294Z,85.45
2023-02-24T07:22:26.715Z,85.64
2023-02-24T07:24:57.609Z,85.39
2023-02-24T07:27:27.637Z,85.51
2023-02-24T07:29:57.101Z,85.80
2023-02-24T07:32:26.471Z,85.80
2023-02-24T07:34:55.807Z,85.83
2023-02-24T07:37:25.057Z,85.44
2023-02-24T07:39:54.532Z,85.60
2023-02-24T07:42:23.718Z,85.31
2023-02-24T07:44:55.575Z,85.38
2023-02-24T07:47:25.147Z,85.04
2023-02-24T07:49:55.605Z,85.03
2023-02-24T07:52:24.782Z,85.31
2023-02-24T07:54:55.107Z,85.18
2023-02-24T07:57:25.107Z,84.94
2023-02-24T07:59:54.559Z,84.46
2023-02-24T08:02:24.003Z,84.39
2023-02-24T08:04:54.533Z,84.40
2023-02-24T08:07:25.178Z,84.24
2023-02-24T08:10:10.370Z,84.75
2023-02-24T08:12:43.133Z,84.48
2023-02-24T08:15:20.621Z,84.35
2023-02-24T08:17:50.283Z,83.85
2023-02-24T08:20:22.394Z,84.04
2023-02-24T08:22:53.424Z,83.68
2023-02-24T08:25:27.594Z,83.87
2023-02-24T08:28:12.507Z,83.41
2023-02-24T08:30:29.723Z,83.00
2023-02-24T08:33:00.196Z,82.87
2023-02-24T08:35:33.336Z,82.35
2023-02-24T08:38:07.563Z,82.50
2023-02-24T08:40:44.442Z,83.02
2023-02-24T08:43:20.195Z,82.11
2023-02-24T08:45:59.529Z,82.57
2023-02-24T08:48:41.405Z,82.00
2023-02-24T08:51:23.819Z,81.71
2023-02-24T08:53:54.343Z,81.84
2023-02-24T08:56:26.346Z,81.42
2023-02-24T08:59:01.878Z,81.32
2023-02-24T09:01:36.062Z,81.03
2023-02-24T09:04:15.000Z,80.37
2023-02-24T09:06:47.645Z,80.86
2023-02-24T09:09:21.478Z,80.47
2023-02-24T09:11:58.832Z,80.89
2023-02-24T09:14:33.565Z,80.36
2023-02-24T09:17:04.191Z,80.76
2023-02-24T09:19:50.089Z,79.79
2023-02-24T09:22:41.129Z,79.27
2023-02-24T09:25:22.027Z,79.36
2023-02-24T09:27:59.261Z,79.88
2023-02-24T09:30:36.523Z,79.48
2023-02-24T09:33:13.620Z,79.95
2023-02-24T09:35:43.207Z,80.22
2023-02-24T09:38:14.108Z,80.09
2023-02-24T09:40:52.338Z,79.59
2023-02-24T09:43:27.839Z,79.82
2023-02-24T09:46:00.386Z,80.05
2023-02-24T09:48:43.986Z,80.24
2023-02-24T09:51:22.417Z,80.03
2023-02-24T09:53:55.183Z,80.51
2023-02-24T09:56:43.305Z,80.72
2023-02-24T09:59:27.467Z,81.40
2023-02-24T10:02:04.164Z,82.05
2023-02-24T10:04:49.487Z,83.25
2023-02-24T10:07:38.749Z,83.62
2023-02-24T10:10:28.534Z,84.64
2023-02-24T10:13:05.743Z,83.86
2023-02-24T10:15:57.014Z,83.81
2023-02-24T10:18:28.291Z,84.09
2023-02-24T10:21:20.489Z,84.13
2023-02-24T10:24:12.664Z,84.03
2023-02-24T10:27:00.145Z,83.47
2023-02-24T10:29:43.383Z,83.57
2023-02-24T10:32:41.856Z,83.56
2023-02-24T10:35:19.297Z,83.29
2023-02-24T10:37:49.290Z,83.43
2023-02-24T10:40:20.972Z,83.45
2023-02-24T10:42:50.188Z,83.65
2023-02-24T10:45:34.775Z,83.33
2023-02-24T10:48:01.549Z,83.31
2023-02-24T10:50:34.889Z,83.50
2023-02-24T10:53:12.372Z,83.78
2023-02-24T10:55:48.336Z,84.11
2023-02-24T10:58:31.455Z,84.01
2023-02-24T11:01:13.429Z,85.17
2023-02-24T11:03:58.714Z,84.76
2023-02-24T11:06:44.136Z,85.64
2023-02-24T11:09:29.539Z,86.34
2023-02-24T11:12:19.221Z,87.64
2023-02-24T11:15:12.248Z,88.45
2023-02-24T11:17:53.903Z,89.36
2023-02-24T11:20:42.311Z,90.44
2023-02-24T11:23:00.204Z,90.78
2023-02-24T11:25:45.412Z,91.83
2023-02-24T11:28:34.523Z,92.84
2023-02-24T11:31:16.424Z,94.02
2023-02-24T11:33:58.150Z,95.01
2023-02-24T11:36:43.401Z,95.88
2023-02-24T11:39:37.860Z,96.81
2023-02-24T11:42:11.497Z,97.48
2023-02-24T11:44:46.845Z,98.46
2023-02-24T11:47:19.370Z,99.23
2023-02-24T11:49:52.574Z,99.85
2023-02-24T11:52:31.742Z,100.00
2023-02-24T11:55:03.957Z,100.00
2023-02-24T11:57:42.344Z,100.00
2023-02-24T12:00:20.382Z,100.00
2023-02-24T12:03:04.037Z,100.00
2023-02-24T12:05:39.205Z,100.00
2023-02-24T12:08:29.802Z,100.00
2023-02-24T12:11:11.546Z,100.00
2023-02-24T12:13:44.116Z,100.00
2023-02-24T12:16:28.864Z,100.00
2023-02-24T12:19:01.697Z,100.00
2023-02-24T12:21:43.720Z,100.00
2023-02-24T12:24:14.490Z,100.00
2023-02-24T12:26:54.503Z,100.00
2023-02-24T12:29:42.664Z,100.00
2023-02-24T12:32:34.614Z,100.00
2023-02-24T12:35:25.049Z,100.00
2023-02-24T12:38:19.889Z,100.00
2023-02-24T12:41:13.308Z,100.00
2023-02-24T12:43:57.459Z,100.00
2023-02-24T12:46:38.111Z,100.00
2023-02-24T12:49:30.096Z,100.00
2023-02-24T12:52:14.323Z,100.00
2023-02-24T12:55:07.834Z,100.00
2023-02-24T12:57:58.921Z,100.00
2023-02-24T13:00:50.418Z,100.00
2023-02-24T13:03:43.045Z,100.00
2023-02-24T13:06:18.575Z,100.00
2023-02-24T13:09:12.200Z,100.00
2023-02-24T13:11:56.631Z,100.00
2023-02-24T13:14:32.232Z,100.00
2023-02-24T13:17:07.545Z,100.00
2023-02-24T13:19:37.111Z,100.00
2023-02-24T13:22:12.038Z,100.00
2023-02-24T13:24:56.646Z,100.00
2023-02-24T13:27:28.833Z,100.00
2023-02-24T13:30:10.363Z,100.00
2023-02-24T13:32:42.237Z,100.00
2023-02-24T13:35:24.873Z,99.84
2023-02-24T13:37:55.176Z,99.94
2023-02-24T13:40:27.780Z,99.76
2023-02-24T13:42:58.807Z,100.00
2023-02-24T13:45:30.010Z,100.00
2023-02-24T13:48:36.103Z,100.00
2023-02-24T13:51:26.614Z,100.00
2023-02-24T13:54:02.158Z,100.00
2023-02-24T13:56:34.816Z,100.00
2023-02-24T13:59:27.282Z,100.00
2023-02-24T14:02:02.440Z,100.00
2023-02-24T14:04:36.650Z,100.00
2023-02-24T14:07:09.430Z,99.32
2023-02-24T14:09:41.177Z,96.47
2023-02-24T14:12:15.943Z,96.17
2023-02-24T14:14:46.207Z,96.55
2023-02-24T14:17:30.832Z,96.33
2023-02-24T14:20:15.775Z,94.26
2023-02-24T14:22:50.848Z,91.31
2023-02-24T14:25:20.925Z,91.74
2023-02-24T14:27:52.386Z,91.75
2023-02-24T14:30:27.903Z,89.92
2023-02-24T14:32:57.404Z,90.16
2023-02-24T14:35:38.758Z,89.29
2023-02-24T14:38:08.287Z,88.99
2023-02-24T14:40:37.974Z,88.47
2023-02-24T14:43:11.745Z,89.92
2023-02-24T14:45:44.516Z,90.28
2023-02-24T14:48:23.311Z,89.19
2023-02-24T14:50:59.792Z,88.47
2023-02-24T14:53:30.584Z,88.45
2023-02-24T14:56:03.403Z,90.23
2023-02-24T14:58:41.853Z,92.02
2023-02-24T15:01:34.930Z,91.21
2023-02-24T15:04:34.039Z,89.87
2023-02-24T15:07:08.307Z,88.77
2023-02-24T15:09:40.697Z,86.80
2023-02-24T15:12:12.737Z,86.61
2023-02-24T15:14:43.486Z,84.93
2023-02-24T15:17:16.250Z,86.87
2023-02-24T15:19:50.281Z,85.20
2023-02-24T15:22:26.246Z,84.51
2023-02-24T15:25:05.101Z,83.52
2023-02-24T15:27:34.519Z,84.39
2023-02-24T15:30:06.832Z,83.81
2023-02-24T15:32:38.301Z,83.17
2023-02-24T15:35:08.786Z,83.57
2023-02-24T15:37:42.741Z,86.17
2023-02-24T15:40:23.132Z,87.41
2023-02-24T15:42:58.506Z,90.22
2023-02-24T15:45:30.872Z,89.64
2023-02-24T15:48:02.527Z,88.73
2023-02-24T15:50:33.122Z,90.04
2023-02-24T15:53:05.072Z,88.37
2023-02-24T15:55:34.281Z,85.82
2023-02-24T15:58:05.300Z,85.84
2023-02-24T16:00:34.506Z,85.61
2023-02-24T16:03:04.362Z,84.20
2023-02-24T16:05:33.583Z,85.44
2023-02-24T16:08:03.095Z,85.35
2023-02-24T16:10:32.557Z,85.19
2023-02-24T16:13:03.010Z,86.22
2023-02-24T16:15:38.037Z,84.96
2023-02-24T16:18:12.460Z,85.36
2023-02-24T16:20:41.739Z,85.75
2023-02-24T16:23:11.715Z,86.38
2023-02-24T16:25:45.381Z,86.17
2023-02-24T16:28:16.870Z,85.89
2023-02-24T16:30:46.496Z,84.72
2023-02-24T16:33:18.266Z,85.39
2023-02-24T16:35:47.611Z,85.61
2023-02-24T16:38:18.957Z,85.96
2023-02-24T16:40:50.148Z,84.75
2023-02-24T16:43:19.549Z,85.40
2023-02-24T16:45:49.102Z,86.98
2023-02-24T16:48:26.874Z,87.39
2023-02-24T16:50:56.214Z,88.16
2023-02-24T16:53:25.834Z,88.53
2023-02-24T16:55:55.067Z,89.26
2023-02-24T16:58:25.171Z,89.28
2023-02-24T17:00:58.712Z,89.52
2023-02-24T17:03:31.648Z,90.07
2023-02-24T17:06:00.995Z,89.91
2023-02-24T17:08:30.316Z,90.15
2023-02-24T17:11:00.117Z,90.09
2023-02-24T17:13:29.877Z,90.35
2023-02-24T17:15:59.285Z,90.52
2023-02-24T17:18:28.571Z,89.53
2023-02-24T17:20:57.863Z,89.21
2023-02-24T17:23:27.478Z,88.89
2023-02-24T17:25:59.741Z,89.86
2023-02-24T17:28:29.241Z,91.56
2023-02-24T17:30:58.943Z,90.10
2023-02-24T17:33:28.912Z,90.37
2023-02-24T17:35:58.195Z,90.20
2023-02-24T17:38:28.703Z,90.54
2023-02-24T17:40:58.039Z,91.13
2023-02-24T17:43:27.713Z,91.36
2023-02-24T17:45:57.260Z,91.78
2023-02-24T17:48:26.905Z,91.37
2023-02-24T17:50:56.125Z,91.30
2023-02-24T17:53:26.597Z,91.03
2023-02-24T17:56:06.821Z,91.12
2023-02-24T17:58:36.933Z,90.83
2023-02-24T18:01:07.522Z,91.05
2023-02-24T18:03:38.167Z,90.41
2023-02-24T18:06:10.289Z,90.56
2023-02-24T18:08:40.848Z,90.97
2023-02-24T18:11:13.465Z,91.00
2023-02-24T18:13:43.057Z,91.55
2023-02-24T18:16:14.620Z,92.01
2023-02-24T18:18:44.336Z,91.60
2023-02-24T18:21:13.912Z,91.99
2023-02-24T18:23:43.153Z,92.40
2023-02-24T18:26:13.812Z,92.63
2023-02-24T18:28:43.405Z,92.90
2023-02-24T18:31:15.957Z,93.14
2023-02-24T18:33:44.637Z,93.35
2023-02-24T18:36:15.130Z,92.95
2023-02-24T18:38:45.024Z,92.60
2023-02-24T18:41:18.388Z,92.89
2023-02-24T18:43:51.811Z,93.06
2023-02-24T18:46:21.668Z,93.03
2023-02-24T18:48:51.367Z,92.81
2023-02-24T18:51:22.986Z,92.81
2023-02-24T18:53:53.173Z,92.84
2023-02-24T18:56:25.796Z,92.72
2023-02-24T18:59:00.245Z,93.82
2023-02-24T19:01:33.078Z,93.78
2023-02-24T19:04:03.576Z,93.03
2023-02-24T19:06:33.766Z,92.92
2023-02-24T19:09:06.586Z,92.90
2023-02-24T19:11:36.359Z,91.84
2023-02-24T19:14:06.310Z,91.97
2023-02-24T19:16:36.428Z,92.30
2023-02-24T19:19:06.179Z,91.59
2023-02-24T19:21:35.902Z,91.78
2023-02-24T19:24:07.277Z,91.10
2023-02-24T19:26:37.565Z,91.20
2023-02-24T19:29:07.574Z,89.89
2023-02-24T19:31:37.431Z,88.68
2023-02-24T19:34:08.857Z,87.50
2023-02-24T19:36:39.020Z,88.46
2023-02-24T19:39:11.034Z,87.99
2023-02-24T19:41:41.231Z,88.63
2023-02-24T19:44:10.956Z,90.17
2023-02-24T19:46:40.461Z,91.40
2023-02-24T19:49:09.877Z,91.78
2023-02-24T19:51:39.357Z,92.54
2023-02-24T19:54:08.570Z,92.94
2023-02-24T19:56:38.288Z,93.51
2023-02-24T19:59:09.123Z,93.73
2023-02-24T20:01:38.524Z,94.35
2023-02-24T20:04:08.849Z,94.31
2023-02-24T20:06:41.062Z,94.26
2023-02-24T20:09:15.071Z,94.55
2023-02-24T20:11:45.437Z,94.27
2023-02-24T20:14:16.296Z,94.10
2023-02-24T20:16:46.284Z,93.62
2023-02-24T20:19:17.584Z,92.77
2023-02-24T20:21:47.605Z,91.88
2023-02-24T20:24:18.486Z,91.99
2023-02-24T20:26:49.896Z,91.34
2023-02-24T20:29:21.110Z,90.62
2023-02-24T20:31:50.844Z,89.62
2023-02-24T20:34:20.559Z,89.59
2023-02-24T20:36:49.937Z,88.53
2023-02-24T20:39:19.552Z,86.88
2023-02-24T20:41:51.035Z,86.19
2023-02-24T20:44:20.267Z,86.28
2023-02-24T20:46:49.542Z,86.63
2023-02-24T20:49:18.919Z,86.42
2023-02-24T20:51:48.357Z,86.17
2023-02-24T20:54:17.943Z,85.81
2023-02-24T20:56:48.387Z,86.68
2023-02-24T20:59:21.938Z,86.88
2023-02-24T21:01:52.247Z,86.27
2023-02-24T21:04:22.764Z,85.62
2023-02-24T21:06:53.414Z,86.37
2023-02-24T21:09:23.126Z,87.93
2023-02-24T21:11:52.737Z,88.27
2023-02-24T21:14:23.019Z,88.53
2023-02-24T21:16:52.697Z,89.41
2023-02-24T21:19:22.085Z,89.89
2023-02-24T21:21:51.440Z,89.74
2023-02-24T21:24:21.187Z,89.99
2023-02-24T21:26:50.858Z,90.33
2023-02-24T21:29:20.162Z,90.02
2023-02-24T21:31:50.059Z,89.83
2023-02-24T21:34:20.190Z,90.07
2023-02-24T21:36:49.584Z,90.06
2023-02-24T21:39:21.007Z,89.76
2023-02-24T21:41:50.212Z,90.14
2023-02-24T21:44:21.292Z,89.68
2023-02-24T21:46:50.610Z,89.43
2023-02-24T21:49:20.021Z,89.53
2023-02-24T21:51:51.528Z,88.95
2023-02-24T21:54:22.153Z,88.12
2023-02-24T21:56:51.501Z,87.99
2023-02-24T21:59:21.190Z,87.98
2023-02-24T22:01:54.799Z,87.39
2023-02-24T22:04:33.735Z,87.65
2023-02-24T22:07:08.801Z,87.43
2023-02-24T22:09:40.711Z,87.24
2023-02-24T22:12:21.249Z,87.01
2023-02-24T22:14:51.805Z,87.02
2023-02-24T22:17:25.315Z,87.31
2023-02-24T22:20:01.283Z,87.02
2023-02-24T22:22:51.396Z,86.87
2023-02-24T22:25:23.808Z,87.33
2023-02-24T22:27:55.065Z,87.20
2023-02-24T22:30:28.548Z,86.86
2023-02-24T22:33:07.165Z,87.23
2023-02-24T22:35:38.663Z,88.22
2023-02-24T22:38:10.887Z,90.13
2023-02-24T22:40:45.912Z,90.93
2023-02-24T22:43:26.093Z,90.67
2023-02-24T22:46:06.385Z,91.25
2023-02-24T22:48:39.363Z,91.81
2023-02-24T22:51:10.328Z,91.00
2023-02-24T22:53:42.318Z,92.17
2023-02-24T22:56:14.056Z,92.54
2023-02-24T22:58:43.428Z,93.08
2023-02-24T23:01:16.645Z,93.80
2023-02-24T23:03:46.271Z,94.33
2023-02-24T23:06:18.333Z,93.43
2023-02-24T23:08:49.767Z,94.06
2023-02-24T23:11:24.866Z,93.06
2023-02-24T23:13:54.866Z,92.65
2023-02-24T23:16:32.081Z,92.27
2023-02-24T23:19:04.545Z,91.59
2023-02-24T23:21:34.904Z,91.83
2023-02-24T23:24:04.466Z,90.58
2023-02-24T23:26:38.657Z,90.99
2023-02-24T23:29:08.537Z,91.26
2023-02-24T23:31:38.450Z,90.60
2023-02-24T23:34:08.993Z,90.68
2023-02-24T23:36:41.070Z,90.75
2023-02-24T23:39:12.543Z,90.75
2023-02-24T23:41:42.170Z,90.63
2023-02-24T23:44:12.544Z,90.40
2023-02-24T23:46:42.106Z,90.41
2023-02-24T23:49:11.486Z,90.13
2023-02-24T23:51:48.598Z,90.10
2023-02-24T23:54:13.410Z,90.08
2023-02-24T23:56:42.898Z,90.14
2023-02-24T23:59:12.382Z,89.91
